Wetterstation Vordersexau
Wetterdaten: Woche 09.01.23 - 15.01.23 (KW2)
Datum Zeit Temp. A. Feuchte A. Luftdruck Regen Wind Richtung Taupunkt Windchill Windben
09.01.2023 00:00 9,9 C 85 % 996,2 hPa 0,3 l/m 6,1 km/h (2 Bft) S-SW 7,5 C 9,9 C 9,7 km/h (2 Bft)
09.01.2023 01:00 9,8 C 86 % 996,1 hPa 0,6 l/m 7,2 km/h (2 Bft) W-SW 7,6 C 9,2 C 13,3 km/h (3 Bft)
09.01.2023 02:00 9,5 C 85 % 996,0 hPa 0,3 l/m 12,2 km/h (2 Bft) W-SW 7,1 C 5,8 C 18,4 km/h (3 Bft)
09.01.2023 03:00 8,9 C 85 % 997,1 hPa 0,0 l/m 12,2 km/h (2 Bft) W 6,5 C 5,1 C 18,4 km/h (3 Bft)
09.01.2023 04:00 8,0 C 89 % 999,0 hPa 0,0 l/m 13,3 km/h (3 Bft) W 6,3 C 3,5 C 18,4 km/h (3 Bft)
09.01.2023 05:00 7,1 C 86 % 1000,7 hPa 0,0 l/m 5,0 km/h (1 Bft) W-SW 4,9 C 7,1 C 6,1 km/h (2 Bft)
09.01.2023 06:00 6,8 C 83 % 1001,7 hPa 0,0 l/m 17,3 km/h (3 Bft) SW 4,1 C 0,2 C 20,9 km/h (4 Bft)
09.01.2023 07:00 6,7 C 80 % 1002,1 hPa 0,0 l/m 13,3 km/h (3 Bft) S-SW 3,5 C 2,0 C 22,0 km/h (4 Bft)
09.01.2023 08:00 6,8 C 77 % 1001,9 hPa 0,0 l/m 9,7 km/h (2 Bft) SW 3,1 C 4,3 C 17,3 km/h (3 Bft)
09.01.2023 09:00 7,2 C 75 % 1001,7 hPa 0,0 l/m 12,2 km/h (2 Bft) S 3,1 C 3,2 C 18,4 km/h (3 Bft)
09.01.2023 10:00 7,8 C 75 % 1002,1 hPa 0,0 l/m 15,8 km/h (3 Bft) SW 3,7 C 2,1 C 33,1 km/h (5 Bft)
09.01.2023 11:00 8,0 C 77 % 1002,3 hPa 0,0 l/m 9,7 km/h (2 Bft) W-SW 4,2 C 5,6 C 13,3 km/h (3 Bft)
09.01.2023 12:00 6,7 C 88 % 1002,1 hPa 0,6 l/m 11,2 km/h (2 Bft) W-SW 4,9 C 3,2 C 14,8 km/h (3 Bft)
09.01.2023 13:00 7,4 C 82 % 1002,6 hPa 0,0 l/m 14,8 km/h (3 Bft) SW 4,5 C 2,1 C 24,5 km/h (4 Bft)
09.01.2023 14:00 7,8 C 81 % 1002,5 hPa 0,0 l/m 5,0 km/h (1 Bft) S 4,7 C 7,8 C 7,2 km/h (2 Bft)
09.01.2023 15:00 6,2 C 87 % 1003,3 hPa 0,3 l/m 6,1 km/h (2 Bft) S-SW 4,2 C 6,2 C 7,2 km/h (2 Bft)
09.01.2023 16:00 4,8 C 91 % 1004,1 hPa 0,9 l/m 9,7 km/h (2 Bft) SW 3,5 C 2,1 C 14,8 km/h (3 Bft)
09.01.2023 17:00 5,6 C 88 % 1005,3 hPa 0,0 l/m 12,2 km/h (2 Bft) W-SW 3,8 C 1,3 C 14,8 km/h (3 Bft)
09.01.2023 18:00 5,7 C 90 % 1006,1 hPa 0,0 l/m 9,7 km/h (2 Bft) W-SW 4,2 C 3,1 C 13,3 km/h (3 Bft)
09.01.2023 19:00 5,6 C 91 % 1007,0 hPa 0,0 l/m 9,7 km/h (2 Bft) S-SW 4,2 C 2,9 C 13,3 km/h (3 Bft)
09.01.2023 20:00 5,9 C 87 % 1008,0 hPa 0,0 l/m 13,3 km/h (3 Bft) W-SW 3,9 C 1,1 C 18,4 km/h (3 Bft)
09.01.2023 21:00 5,9 C 86 % 1008,6 hPa 0,0 l/m 8,6 km/h (2 Bft) S-SW 3,7 C 4,1 C 13,3 km/h (3 Bft)
09.01.2023 22:00 5,2 C 89 % 1008,9 hPa 0,0 l/m 9,7 km/h (2 Bft) W-SW 3,5 C 2,5 C 17,3 km/h (3 Bft)
09.01.2023 23:00 5,0 C 91 % 1010,0 hPa 0,3 l/m 11,2 km/h (2 Bft) W 3,7 C 1,3 C 14,8 km/h (3 Bft)
10.01.2023 00:00 4,7 C 94 % 1011,1 hPa 0,3 l/m 3,6 km/h (1 Bft) W 3,8 C 4,7 C 6,1 km/h (2 Bft)
10.01.2023 01:00 4,9 C 94 % 1012,4 hPa 0,6 l/m 5,0 km/h (1 Bft) W 4,0 C 4,9 C 9,7 km/h (2 Bft)
10.01.2023 02:00 4,8 C 95 % 1013,8 hPa 1,2 l/m 3,6 km/h (1 Bft) W 4,1 C 4,8 C 6,1 km/h (2 Bft)
10.01.2023 03:00 5,0 C 90 % 1015,1 hPa 0,3 l/m 7,2 km/h (2 Bft) W 3,5 C 4,3 C 11,2 km/h (2 Bft)
10.01.2023 04:00 4,4 C 91 % 1016,0 hPa 0,0 l/m 2,5 km/h (1 Bft) W-SW 3,1 C 4,4 C 3,6 km/h (1 Bft)
10.01.2023 05:00 4,4 C 92 % 1016,9 hPa 0,0 l/m 6,1 km/h (2 Bft) W 3,2 C 4,4 C 9,7 km/h (2 Bft)
10.01.2023 06:00 4,2 C 93 % 1018,1 hPa 0,6 l/m 6,1 km/h (2 Bft) W-SW 3,2 C 4,2 C 9,7 km/h (2 Bft)
10.01.2023 07:00 3,7 C 94 % 1018,5 hPa 0,0 l/m 2,5 km/h (1 Bft) W-SW 2,8 C 3,7 C 3,6 km/h (1 Bft)
10.01.2023 08:00 4,1 C 91 % 1019,5 hPa 0,0 l/m 3,6 km/h (1 Bft) SW 2,8 C 4,1 C 6,1 km/h (2 Bft)
10.01.2023 09:00 4,5 C 86 % 1020,2 hPa 0,0 l/m 3,6 km/h (1 Bft) W-SW 2,4 C 4,5 C 6,1 km/h (2 Bft)
10.01.2023 10:00 5,5 C 86 % 1020,7 hPa 0,0 l/m 7,2 km/h (2 Bft) W-SW 3,3 C 4,8 C 11,2 km/h (2 Bft)
10.01.2023 11:00 6,2 C 83 % 1021,0 hPa 0,0 l/m 14,8 km/h (3 Bft) SW 3,5 C 0,6 C 20,9 km/h (4 Bft)
10.01.2023 12:00 7,5 C 79 % 1021,1 hPa 0,0 l/m 13,3 km/h (3 Bft) W-SW 4,1 C 2,9 C 18,4 km/h (3 Bft)
10.01.2023 13:00 7,4 C 77 % 1020,3 hPa 0,0 l/m 14,8 km/h (3 Bft) S 3,6 C 2,1 C 20,9 km/h (4 Bft)
10.01.2023 14:00 7,5 C 72 % 1019,7 hPa 0,0 l/m 9,7 km/h (2 Bft) W-SW 2,8 C 5,0 C 13,3 km/h (3 Bft)
10.01.2023 15:00 7,6 C 72 % 1019,2 hPa 0,0 l/m 7,2 km/h (2 Bft) W-SW 2,9 C 7,0 C 11,2 km/h (2 Bft)
10.01.2023 16:00 7,0 C 70 % 1018,5 hPa 0,0 l/m 9,7 km/h (2 Bft) O-SO 1,9 C 4,5 C 13,3 km/h (3 Bft)
10.01.2023 17:00 5,6 C 79 % 1018,4 hPa 0,0 l/m 3,6 km/h (1 Bft) S-SO 2,3 C 5,6 C 3,6 km/h (1 Bft)
10.01.2023 18:00 5,7 C 77 % 1017,8 hPa 0,0 l/m 3,6 km/h (1 Bft) SO 2,0 C 5,7 C 6,1 km/h (2 Bft)
10.01.2023 19:00 6,7 C 67 % 1017,6 hPa 0,0 l/m 5,0 km/h (1 Bft) SW 1,0 C 6,7 C 7,2 km/h (2 Bft)
10.01.2023 20:00 7,3 C 63 % 1017,3 hPa 0,0 l/m 5,0 km/h (1 Bft) S-SW 0,7 C 7,3 C 7,2 km/h (2 Bft)
10.01.2023 21:00 8,3 C 57 % 1016,8 hPa 0,0 l/m 7,2 km/h (2 Bft) W-SW 0,3 C 7,7 C 9,7 km/h (2 Bft)
10.01.2023 22:00 8,1 C 59 % 1016,6 hPa 0,0 l/m 2,5 km/h (1 Bft) W-SW 0,6 C 8,1 C 3,6 km/h (1 Bft)
10.01.2023 23:00 8,4 C 68 % 1016,2 hPa 0,0 l/m 5,0 km/h (1 Bft) W-SW 2,8 C 8,4 C 7,2 km/h (2 Bft)
11.01.2023 00:00 8,7 C 73 % 1015,9 hPa 0,0 l/m 7,2 km/h (2 Bft) W-SW 4,1 C 8,1 C 9,7 km/h (2 Bft)
11.01.2023 01:00 8,9 C 77 % 1015,7 hPa 0,0 l/m 9,7 km/h (2 Bft) W-SW 5,1 C 6,6 C 13,3 km/h (3 Bft)
11.01.2023 02:00 9,3 C 81 % 1015,0 hPa 0,0 l/m 8,6 km/h (2 Bft) W-SW 6,2 C 7,7 C 11,2 km/h (2 Bft)
11.01.2023 03:00 10,2 C 81 % 1014,7 hPa 0,0 l/m 11,2 km/h (2 Bft) W-SW 7,1 C 7,2 C 14,8 km/h (3 Bft)
11.01.2023 04:00 10,6 C 79 % 1014,4 hPa 0,0 l/m 7,2 km/h (2 Bft) SW 7,1 C 10,0 C 11,2 km/h (2 Bft)
11.01.2023 05:00 9,6 C 87 % 1014,3 hPa 0,0 l/m 9,7 km/h (2 Bft) S 7,5 C 7,3 C 13,3 km/h (3 Bft)
11.01.2023 06:00 9,8 C 85 % 1013,5 hPa 0,0 l/m 14,8 km/h (3 Bft) S 7,4 C 5,0 C 22,0 km/h (4 Bft)
11.01.2023 07:00 10,4 C 83 % 1013,1 hPa 0,0 l/m 6,1 km/h (2 Bft) S-SW 7,6 C 10,4 C 7,2 km/h (2 Bft)
11.01.2023 08:00 11,2 C 80 % 1012,8 hPa 0,0 l/m 12,2 km/h (2 Bft) W-SW 7,9 C 7,8 C 20,9 km/h (4 Bft)
11.01.2023 09:00 11,7 C 77 % 1012,6 hPa 0,0 l/m 7,2 km/h (2 Bft) SW 7,8 C 11,2 C 11,2 km/h (2 Bft)
11.01.2023 10:00 11,9 C 78 % 1013,0 hPa 0,0 l/m 24,5 km/h (4 Bft) W-SW 8,2 C 4,5 C 35,6 km/h (5 Bft)
11.01.2023 11:00 11,7 C 81 % 1012,9 hPa 0,0 l/m 11,2 km/h (2 Bft) SW 8,5 C 8,9 C 14,8 km/h (3 Bft)
11.01.2023 12:00 11,2 C 86 % 1012,7 hPa 0,6 l/m 11,2 km/h (2 Bft) W-SW 8,9 C 8,3 C 18,4 km/h (3 Bft)
11.01.2023 13:00 10,6 C 90 % 1012,6 hPa 0,6 l/m 15,8 km/h (3 Bft) W 9,0 C 5,5 C 20,9 km/h (4 Bft)
11.01.2023 14:00 10,7 C 89 % 1012,7 hPa 0,0 l/m 12,2 km/h (2 Bft) W 9,0 C 7,2 C 18,4 km/h (3 Bft)
11.01.2023 15:00 10,0 C 91 % 1013,5 hPa 0,3 l/m 12,2 km/h (2 Bft) W-SW 8,6 C 6,4 C 14,8 km/h (3 Bft)
11.01.2023 16:00 9,6 C 95 % 1014,8 hPa 0,3 l/m 3,6 km/h (1 Bft) W-SW 8,8 C 9,6 C 6,1 km/h (2 Bft)
11.01.2023 17:00 9,2 C 96 % 1015,9 hPa 0,0 l/m 2,5 km/h (1 Bft) W-SW 8,6 C 9,2 C 3,6 km/h (1 Bft)
11.01.2023 18:00 9,0 C 93 % 1016,3 hPa 0,3 l/m 7,2 km/h (2 Bft) W-SW 7,9 C 8,4 C 9,7 km/h (2 Bft)
11.01.2023 19:00 8,8 C 92 % 1017,6 hPa 0,0 l/m 7,2 km/h (2 Bft) W 7,6 C 8,2 C 9,7 km/h (2 Bft)
11.01.2023 20:00 7,8 C 94 % 1018,1 hPa 0,9 l/m 8,6 km/h (2 Bft) W-SW 6,9 C 6,1 C 13,3 km/h (3 Bft)
11.01.2023 21:00 7,8 C 90 % 1018,7 hPa 0,0 l/m 7,2 km/h (2 Bft) W-SW 6,3 C 7,2 C 9,7 km/h (2 Bft)
11.01.2023 22:00 7,9 C 89 % 1019,0 hPa 0,0 l/m 7,2 km/h (2 Bft) SW 6,2 C 7,3 C 9,7 km/h (2 Bft)
11.01.2023 23:00 8,3 C 85 % 1018,7 hPa 0,0 l/m 11,2 km/h (2 Bft) SW 5,9 C 5,0 C 17,3 km/h (3 Bft)
12.01.2023 00:00 8,2 C 85 % 1018,5 hPa 0,0 l/m 9,7 km/h (2 Bft) SW 5,8 C 5,8 C 14,8 km/h (3 Bft)
12.01.2023 01:00 8,2 C 85 % 1018,4 hPa 0,0 l/m 13,3 km/h (3 Bft) SW 5,8 C 3,8 C 22,0 km/h (4 Bft)
12.01.2023 02:00 8,1 C 83 % 1018,2 hPa 0,0 l/m 9,7 km/h (2 Bft) S 5,4 C 5,7 C 17,3 km/h (3 Bft)
12.01.2023 03:00 8,5 C 80 % 1018,2 hPa 0,0 l/m 13,3 km/h (3 Bft) W-SW 5,3 C 4,1 C 18,4 km/h (3 Bft)
12.01.2023 04:00 8,3 C 80 % 1018,1 hPa 0,0 l/m 12,2 km/h (2 Bft) S-SW 5,1 C 4,4 C 17,3 km/h (3 Bft)
12.01.2023 05:00 8,6 C 79 % 1017,9 hPa 0,0 l/m 12,2 km/h (2 Bft) W-SW 5,2 C 4,8 C 17,3 km/h (3 Bft)
12.01.2023 06:00 8,2 C 81 % 1017,9 hPa 0,0 l/m 8,6 km/h (2 Bft) W-SW 5,1 C 6,5 C 11,2 km/h (2 Bft)
12.01.2023 07:00 8,4 C 78 % 1017,5 hPa 0,0 l/m 11,2 km/h (2 Bft) SW 4,8 C 5,1 C 17,3 km/h (3 Bft)
12.01.2023 08:00 8,5 C 78 % 1016,9 hPa 0,0 l/m 13,3 km/h (3 Bft) SW 4,9 C 4,1 C 22,0 km/h (4 Bft)
12.01.2023 09:00 8,7 C 76 % 1017,0 hPa 0,0 l/m 15,8 km/h (3 Bft) W 4,7 C 3,2 C 20,9 km/h (4 Bft)
12.01.2023 10:00 9,3 C 76 % 1016,9 hPa 0,0 l/m 15,8 km/h (3 Bft) W 5,3 C 3,9 C 28,1 km/h (4 Bft)
12.01.2023 11:00 9,6 C 77 % 1017,2 hPa 0,0 l/m 24,5 km/h (4 Bft) S-SW 5,8 C 1,4 C 33,1 km/h (5 Bft)
12.01.2023 12:00 9,7 C 78 % 1016,6 hPa 0,0 l/m 23,4 km/h (4 Bft) SW 6,1 C 1,9 C 33,1 km/h (5 Bft)
12.01.2023 13:00 9,8 C 79 % 1016,2 hPa 0,0 l/m 14,8 km/h (3 Bft) SW 6,3 C 5,0 C 24,5 km/h (4 Bft)
12.01.2023 14:00 10,3 C 76 % 1015,5 hPa 0,0 l/m 13,3 km/h (3 Bft) W-SW 6,3 C 6,2 C 20,9 km/h (4 Bft)
12.01.2023 15:00 10,3 C 76 % 1015,3 hPa 0,0 l/m 13,3 km/h (3 Bft) SW 6,3 C 6,2 C 17,3 km/h (3 Bft)
12.01.2023 16:00 10,4 C 75 % 1015,1 hPa 0,0 l/m 14,8 km/h (3 Bft) W-SW 6,2 C 5,7 C 22,0 km/h (4 Bft)
12.01.2023 17:00 10,0 C 76 % 1014,8 hPa 0,0 l/m 13,3 km/h (3 Bft) W-SW 6,0 C 5,9 C 18,4 km/h (3 Bft)
12.01.2023 18:00 10,4 C 73 % 1014,5 hPa 0,0 l/m 15,8 km/h (3 Bft) SW 5,8 C 5,3 C 22,0 km/h (4 Bft)
12.01.2023 19:00 10,6 C 71 % 1014,3 hPa 0,0 l/m 15,8 km/h (3 Bft) W-SW 5,6 C 5,5 C 20,9 km/h (4 Bft)
12.01.2023 20:00 10,7 C 69 % 1013,9 hPa 0,0 l/m 12,2 km/h (2 Bft) W 5,2 C 7,2 C 18,4 km/h (3 Bft)
12.01.2023 21:00 11,0 C 67 % 1013,3 hPa 0,0 l/m 14,8 km/h (3 Bft) W-SW 5,1 C 6,4 C 20,9 km/h (4 Bft)
12.01.2023 22:00 11,1 C 67 % 1013,2 hPa 0,0 l/m 13,3 km/h (3 Bft) W 5,2 C 7,2 C 18,4 km/h (3 Bft)
12.01.2023 23:00 11,1 C 68 % 1012,7 hPa 0,0 l/m 9,7 km/h (2 Bft) W 5,4 C 9,0 C 13,3 km/h (3 Bft)
13.01.2023 00:00 11,3 C 68 % 1012,7 hPa 0,0 l/m 9,7 km/h (2 Bft) SW 5,6 C 9,2 C 13,3 km/h (3 Bft)
13.01.2023 01:00 11,4 C 67 % 1011,8 hPa 0,0 l/m 14,8 km/h (3 Bft) SW 5,5 C 6,9 C 18,4 km/h (3 Bft)
13.01.2023 02:00 11,3 C 68 % 1011,3 hPa 0,0 l/m 15,8 km/h (3 Bft) W-SW 5,6 C 6,4 C 22,0 km/h (4 Bft)
13.01.2023 03:00 10,9 C 72 % 1011,2 hPa 0,0 l/m 19,4 km/h (3 Bft) W-SW 6,1 C 4,6 C 28,1 km/h (4 Bft)
13.01.2023 04:00 10,6 C 74 % 1011,3 hPa 0,0 l/m 14,8 km/h (3 Bft) S-SW 6,2 C 5,9 C 20,9 km/h (4 Bft)
13.01.2023 05:00 10,5 C 75 % 1010,4 hPa 0,0 l/m 11,2 km/h (2 Bft) S 6,3 C 7,5 C 17,3 km/h (3 Bft)
13.01.2023 06:00 10,2 C 78 % 1010,5 hPa 0,0 l/m 18,4 km/h (3 Bft) W-SW 6,5 C 4,1 C 29,5 km/h (5 Bft)
13.01.2023 07:00 10,1 C 80 % 1010,4 hPa 0,0 l/m 11,2 km/h (2 Bft) SW 6,8 C 7,0 C 20,9 km/h (4 Bft)
13.01.2023 08:00 10,2 C 82 % 1010,3 hPa 0,0 l/m 11,2 km/h (2 Bft) W 7,3 C 7,2 C 14,8 km/h (3 Bft)
13.01.2023 09:00 9,5 C 88 % 1010,7 hPa 0,0 l/m 14,8 km/h (3 Bft) W-SW 7,6 C 4,6 C 25,6 km/h (4 Bft)
13.01.2023 10:00 10,6 C 83 % 1011,2 hPa 0,0 l/m 12,2 km/h (2 Bft) SW 7,8 C 7,1 C 18,4 km/h (3 Bft)
13.01.2023 11:00 10,9 C 78 % 1011,5 hPa 0,0 l/m 19,4 km/h (3 Bft) S-SW 7,2 C 4,6 C 28,1 km/h (4 Bft)
13.01.2023 12:00 10,9 C 78 % 1012,2 hPa 0,0 l/m 14,8 km/h (3 Bft) W 7,2 C 6,3 C 22,0 km/h (4 Bft)
13.01.2023 13:00 10,1 C 82 % 1012,7 hPa 0,3 l/m 5,0 km/h (1 Bft) SW 7,2 C 10,1 C 6,1 km/h (2 Bft)
13.01.2023 14:00 9,4 C 80 % 1012,8 hPa 0,0 l/m 12,2 km/h (2 Bft) SW 6,1 C 5,7 C 18,4 km/h (3 Bft)
13.01.2023 15:00 9,0 C 80 % 1013,5 hPa 0,0 l/m 9,7 km/h (2 Bft) N 5,7 C 6,7 C 13,3 km/h (3 Bft)
Min-Datum _ 10.01.23 10.01.23 09.01.23 - 10.01.23 - 10.01.23 09.01.23 10.01.23
_ Min-Zeit 07:35 21:35 02:28 - 04:35 - 21:35 06:28 04:35
Minimum _ 3,7 C 57 % 996,0 hPa - 2,5 km/h (1 Bft) - 0,3 C 0,2 C 3,6 km/h (1 Bft)
Max-Datum _ 11.01.23 11.01.23 10.01.23 10.01.23 11.01.23 - 11.01.23 11.01.23 11.01.23
_ Max-Zeit 10:35 17:35 12:35 02:35 10:35 - 13:35 09:35 10:35
Maximum _ 11,9 C 96 % 1021,1 hPa 1,2 l/m 24,5 km/h
W-SW (4 Bft)
- 9,0 C 11,2 C 35,6 km/h
W-SW (5 Bft)
Durchschnitt _ 8,4 C 81 % 1012,7 hPa #9,6 l/m 10,6 km/h (2 Bft) W-SW 5,3 C 5,6 C 15,6 km/h (3 Bft)
www.sexauwetter.de